Time;durP1;ratioP1;P1;durP2;ratioP2;P2;SDS_P1;SDS_P2;PMS_P1;PMS_P2;Temp;Humidity;BMP_temperature;BMP_pressure;BME280_temperature;BME280_humidity;BME280_pressure;Samples;Min_cycle;Max_cycle;Signal;HPM_P1;HPM_P2
2021/01/14 00:01:32;;;;;;;;;;;3.00;99.90;;;;;;5114313;28;19915;-85
2021/01/14 00:04:06;;;;;;;;;;;3.00;99.90;;;;;;5112934;28;19908;-85
2021/01/14 00:06:38;;;;;;;;;;;3.00;99.90;;;;;;5112897;28;19908;-84
2021/01/14 00:09:06;;;;;;;;;;;3.00;99.90;;;;;;5109515;28;20264;-84
2021/01/14 00:11:44;;;;;;;;;;;2.90;99.90;;;;;;5113382;28;19908;-84
2021/01/14 00:14:16;;;;;;;;;;;2.90;99.90;;;;;;5114297;28;19961;-84
2021/01/14 00:16:44;;;;;;;;;;;2.80;99.90;;;;;;5114910;28;19927;-84
2021/01/14 00:19:17;;;;;;;;;;;2.80;99.90;;;;;;5113336;28;19908;-85
2021/01/14 00:21:49;;;;;;;;;;;2.80;99.90;;;;;;5113363;28;19908;-85
2021/01/14 00:24:17;;;;;;;;;;;2.80;99.90;;;;;;5114090;28;19914;-85
2021/01/14 00:26:45;;;;;;;;;;;2.80;99.90;;;;;;5112699;28;19907;-85
2021/01/14 00:29:11;;;;;;;;;;;2.70;99.90;;;;;;5115646;28;19912;-85
2021/01/14 00:31:38;;;;;;;;;;;2.70;99.90;;;;;;5110616;28;20315;-85
2021/01/14 00:34:22;;;;;;;;;;;2.70;99.90;;;;;;5117887;28;19994;-82
2021/01/14 00:39:32;;;;;;;;;;;2.60;99.90;;;;;;5118143;28;19987;-83
2021/01/14 00:42:09;;;;;;;;;;;2.70;99.90;;;;;;5116303;28;19959;-84
2021/01/14 00:44:40;;;;;;;;;;;2.60;99.90;;;;;;5116771;28;19912;-84
2021/01/14 00:47:09;;;;;;;;;;;2.60;99.90;;;;;;5112367;28;19912;-84
2021/01/14 00:49:38;;;;;;;;;;;2.60;99.90;;;;;;5117641;28;19908;-83
2021/01/14 00:52:06;;;;;;;;;;;2.60;99.90;;;;;;5114289;28;19908;-84
2021/01/14 00:57:32;;;;;;;;;;;2.50;99.90;;;;;;5117748;28;20258;-84
2021/01/14 01:00:05;;;;;;;;;;;2.50;99.90;;;;;;5116762;28;19915;-83
2021/01/14 01:02:33;;;;;;;;;;;2.40;99.90;;;;;;5116405;28;19908;-84
2021/01/14 01:05:02;;;;;;;;;;;2.40;99.90;;;;;;5116740;28;19930;-83
2021/01/14 01:07:35;;;;;;;;;;;2.40;99.90;;;;;;5115995;28;19908;-84
2021/01/14 01:10:07;;;;;;;;;;;2.40;99.90;;;;;;5115619;28;19914;-83
2021/01/14 01:12:41;;;;;;;;;;;2.40;99.90;;;;;;5116210;28;20003;-83
2021/01/14 01:15:10;;;;;;;;;;;2.30;99.90;;;;;;5112256;28;20344;-84
2021/01/14 01:17:42;;;;;;;;;;;2.30;99.90;;;;;;5109879;28;20049;-84
2021/01/14 01:20:17;;;;;;;;;;;2.20;99.90;;;;;;5116958;28;19915;-83
2021/01/14 01:22:51;;;;;;;;;;;2.20;99.90;;;;;;5116105;28;20360;-84
2021/01/14 01:25:21;;;;;;;;;;;2.10;99.90;;;;;;5115737;28;19907;-83
2021/01/14 01:27:54;;;;;;;;;;;2.10;99.90;;;;;;5099164;28;19918;-84
2021/01/14 01:30:23;;;;;;;;;;;2.00;99.90;;;;;;5115679;28;19976;-83
2021/01/14 01:32:54;;;;;;;;;;;2.00;99.90;;;;;;5108956;28;19912;-83
2021/01/14 01:35:20;;;;;;;;;;;1.90;99.90;;;;;;5113970;28;19908;-84
2021/01/14 01:37:48;;;;;;;;;;;1.90;99.90;;;;;;5113007;28;19961;-83
2021/01/14 01:40:30;;;;;;;;;;;1.90;99.90;;;;;;5115694;28;19930;-84
2021/01/14 01:42:58;;;;;;;;;;;1.80;99.90;;;;;;5114997;28;19924;-83
2021/01/14 01:45:30;;;;;;;;;;;1.80;99.90;;;;;;5116507;28;19908;-84
2021/01/14 01:47:56;;;;;;;;;;;1.80;99.90;;;;;;5115425;28;19911;-83
2021/01/14 01:50:26;;;;;;;;;;;1.80;99.90;;;;;;5112049;28;19935;-83
2021/01/14 01:53:02;;;;;;;;;;;1.80;99.90;;;;;;5115714;28;19964;-84
2021/01/14 01:55:31;;;;;;;;;;;1.80;99.90;;;;;;5116880;28;19915;-84
2021/01/14 01:57:59;;;;;;;;;;;1.80;99.90;;;;;;5114901;28;20007;-84
2021/01/14 02:00:25;;;;;;;;;;;1.90;99.90;;;;;;5112299;28;20323;-84
2021/01/14 02:02:57;;;;;;;;;;;1.90;99.90;;;;;;5112105;28;20042;-84
2021/01/14 02:05:42;;;;;;;;;;;1.90;99.90;;;;;;5115395;28;19914;-85
2021/01/14 02:08:19;;;;;;;;;;;2.00;99.90;;;;;;5113414;28;19908;-86
2021/01/14 02:10:51;;;;;;;;;;;1.90;99.90;;;;;;5117736;28;19908;-85
2021/01/14 02:13:31;;;;;;;;;;;1.90;99.90;;;;;;5114867;28;19907;-84
2021/01/14 02:16:04;;;;;;;;;;;2.00;99.90;;;;;;5114956;28;20052;-84
2021/01/14 02:18:35;;;;;;;;;;;1.90;99.90;;;;;;5114930;28;19945;-85
2021/01/14 02:21:11;;;;;;;;;;;1.90;99.90;;;;;;5114415;28;19919;-84
2021/01/14 02:23:48;;;;;;;;;;;1.90;99.90;;;;;;5114432;28;19908;-85
2021/01/14 02:26:43;;;;;;;;;;;1.90;99.90;;;;;;5115907;28;19961;-84
2021/01/14 02:29:13;;;;;;;;;;;1.90;99.90;;;;;;5115532;27;20282;-85
2021/01/14 02:31:55;;;;;;;;;;;1.90;99.90;;;;;;5115703;28;19916;-84
2021/01/14 02:34:24;;;;;;;;;;;1.90;99.90;;;;;;5114398;28;19919;-84
2021/01/14 02:36:50;;;;;;;;;;;1.90;99.90;;;;;;5111709;28;20368;-84
2021/01/14 02:39:15;;;;;;;;;;;1.90;99.90;;;;;;5112148;28;19911;-84
2021/01/14 02:41:44;;;;;;;;;;;1.90;99.90;;;;;;5107626;28;19955;-85
2021/01/14 02:44:17;;;;;;;;;;;1.90;99.90;;;;;;5115649;28;19908;-85
2021/01/14 02:46:45;;;;;;;;;;;1.90;99.90;;;;;;5114803;28;19914;-84
2021/01/14 02:49:17;;;;;;;;;;;1.90;99.90;;;;;;5114187;28;20002;-84
2021/01/14 02:51:57;;;;;;;;;;;1.90;99.90;;;;;;5115631;28;20003;-84
2021/01/14 02:54:29;;;;;;;;;;;2.00;99.90;;;;;;5114957;28;19918;-83
2021/01/14 02:57:04;;;;;;;;;;;1.90;99.90;;;;;;5114038;28;20066;-84
2021/01/14 02:59:30;;;;;;;;;;;2.00;99.90;;;;;;5114241;28;19908;-84
2021/01/14 03:01:56;;;;;;;;;;;2.00;99.90;;;;;;5114065;28;19912;-84
2021/01/14 03:04:29;;;;;;;;;;;2.00;99.90;;;;;;5114075;28;19908;-84
2021/01/14 03:07:04;;;;;;;;;;;1.90;99.90;;;;;;5114094;28;19916;-84
2021/01/14 03:09:38;;;;;;;;;;;1.80;99.90;;;;;;5110295;28;20007;-84
2021/01/14 03:12:06;;;;;;;;;;;1.80;99.90;;;;;;5115803;28;19908;-84
2021/01/14 03:14:35;;;;;;;;;;;1.70;99.90;;;;;;5107657;28;19951;-84
2021/01/14 03:17:13;;;;;;;;;;;1.80;99.90;;;;;;5107289;28;19911;-85
2021/01/14 03:19:45;;;;;;;;;;;1.80;99.90;;;;;;5115341;28;20364;-84
2021/01/14 03:22:10;;;;;;;;;;;1.70;99.90;;;;;;5114598;28;20314;-84
2021/01/14 03:24:41;;;;;;;;;;;1.70;99.90;;;;;;5114106;28;19908;-84
2021/01/14 03:27:10;;;;;;;;;;;1.70;99.90;;;;;;5113778;28;19953;-84
2021/01/14 03:29:38;;;;;;;;;;;1.70;99.90;;;;;;5114720;28;19914;-85
2021/01/14 03:32:06;;;;;;;;;;;1.60;99.90;;;;;;5113881;28;20360;-85
2021/01/14 03:34:35;;;;;;;;;;;1.60;99.90;;;;;;5115186;28;19994;-84
2021/01/14 03:37:11;;;;;;;;;;;1.50;99.90;;;;;;5113376;28;20414;-85
2021/01/14 03:39:46;;;;;;;;;;;1.50;99.90;;;;;;5114666;28;19908;-85
2021/01/14 03:42:14;;;;;;;;;;;1.40;99.90;;;;;;5112902;28;19927;-85
2021/01/14 03:44:40;;;;;;;;;;;1.30;99.90;;;;;;5113773;28;19908;-84
2021/01/14 03:47:12;;;;;;;;;;;1.30;99.90;;;;;;5113780;28;19962;-85
2021/01/14 03:49:40;;;;;;;;;;;1.30;99.90;;;;;;5116092;28;19953;-84
2021/01/14 03:52:15;;;;;;;;;;;1.20;99.90;;;;;;5119758;28;19914;-84
2021/01/14 03:54:44;;;;;;;;;;;1.20;99.90;;;;;;5118064;28;20280;-85
2021/01/14 03:57:09;;;;;;;;;;;1.20;99.90;;;;;;5118865;28;19920;-84
2021/01/14 03:59:42;;;;;;;;;;;1.20;99.90;;;;;;5110055;28;19951;-84
2021/01/14 04:02:07;;;;;;;;;;;1.20;99.90;;;;;;5113572;28;19908;-85
2021/01/14 04:04:34;;;;;;;;;;;1.20;99.90;;;;;;5115329;28;19908;-85
2021/01/14 04:07:20;;;;;;;;;;;1.20;99.90;;;;;;5117443;28;19908;-85
2021/01/14 04:09:48;;;;;;;;;;;1.20;99.90;;;;;;5118943;28;19907;-84
2021/01/14 04:12:25;;;;;;;;;;;1.20;99.90;;;;;;5111419;28;20370;-84
2021/01/14 04:15:04;;;;;;;;;;;1.20;99.90;;;;;;5117621;28;19907;-84
2021/01/14 04:17:30;;;;;;;;;;;1.20;99.90;;;;;;5117635;28;19915;-85
2021/01/14 04:20:07;;;;;;;;;;;1.20;99.90;;;;;;5117340;28;20014;-84
2021/01/14 04:22:32;;;;;;;;;;;1.20;99.90;;;;;;5118519;28;20372;-85
2021/01/14 04:25:06;;;;;;;;;;;1.30;99.90;;;;;;5117888;28;19908;-85
2021/01/14 04:27:38;;;;;;;;;;;1.30;99.90;;;;;;5117013;28;20352;-84
2021/01/14 04:30:07;;;;;;;;;;;1.30;99.90;;;;;;5111782;28;19907;-85
2021/01/14 04:32:36;;;;;;;;;;;1.40;99.90;;;;;;5059412;28;19923;-85
2021/01/14 04:35:07;;;;;;;;;;;1.40;99.90;;;;;;5075683;28;19913;-85
2021/01/14 04:37:33;;;;;;;;;;;1.30;99.90;;;;;;5075864;28;19923;-85
2021/01/14 04:40:00;;;;;;;;;;;1.30;99.90;;;;;;5075340;28;19908;-85
2021/01/14 04:42:34;;;;;;;;;;;1.30;99.90;;;;;;5074873;28;19920;-84
2021/01/14 04:45:05;;;;;;;;;;;1.30;99.90;;;;;;5074988;28;19943;-84
2021/01/14 04:47:35;;;;;;;;;;;1.20;99.90;;;;;;5074969;28;20360;-84
2021/01/14 04:50:06;;;;;;;;;;;1.10;99.90;;;;;;5072488;28;19966;-84
2021/01/14 04:52:41;;;;;;;;;;;1.10;99.90;;;;;;5075577;28;19912;-84
2021/01/14 04:55:25;;;;;;;;;;;1.00;99.90;;;;;;5074868;28;19912;-84
2021/01/14 04:57:54;;;;;;;;;;;1.00;99.90;;;;;;5074983;28;20362;-85
2021/01/14 05:00:26;;;;;;;;;;;1.00;99.90;;;;;;5074429;28;19908;-84
2021/01/14 05:03:03;;;;;;;;;;;1.00;99.90;;;;;;5084968;28;20371;-84
2021/01/14 05:05:34;;;;;;;;;;;1.00;99.90;;;;;;5116336;28;20387;-84
2021/01/14 05:08:07;;;;;;;;;;;1.00;99.90;;;;;;5116633;28;20007;-85
2021/01/14 05:10:49;;;;;;;;;;;1.00;99.90;;;;;;5117770;28;19911;-84
2021/01/14 05:13:15;;;;;;;;;;;1.00;99.90;;;;;;5116728;28;19908;-85
2021/01/14 05:15:40;;;;;;;;;;;1.00;99.90;;;;;;5114881;28;19908;-84
2021/01/14 05:18:06;;;;;;;;;;;1.10;99.90;;;;;;5115571;28;20006;-84
2021/01/14 05:20:32;;;;;;;;;;;1.10;99.90;;;;;;5116503;28;20334;-85
2021/01/14 05:23:08;;;;;;;;;;;1.10;99.90;;;;;;5116013;28;19908;-84
2021/01/14 05:25:34;;;;;;;;;;;1.20;99.90;;;;;;5116069;28;19959;-85
2021/01/14 05:28:13;;;;;;;;;;;1.20;99.90;;;;;;5116162;28;19907;-84
2021/01/14 05:30:42;;;;;;;;;;;1.20;99.90;;;;;;5115586;28;19915;-85
2021/01/14 05:33:29;;;;;;;;;;;1.20;99.90;;;;;;5116230;28;20364;-84
2021/01/14 05:36:02;;;;;;;;;;;1.20;99.90;;;;;;5119163;28;19915;-85
2021/01/14 05:38:47;;;;;;;;;;;1.20;99.90;;;;;;5117184;28;19915;-84
2021/01/14 05:41:21;;;;;;;;;;;1.20;99.90;;;;;;5115585;27;19920;-85
2021/01/14 05:43:56;;;;;;;;;;;1.20;99.90;;;;;;5119740;27;19912;-85
2021/01/14 05:46:29;;;;;;;;;;;1.20;99.90;;;;;;5119701;27;19912;-84
2021/01/14 05:49:07;;;;;;;;;;;1.20;99.90;;;;;;5118985;27;20354;-85
2021/01/14 05:51:36;;;;;;;;;;;1.20;99.90;;;;;;5136951;27;19914;-85
2021/01/14 05:54:31;;;;;;;;;;;1.20;99.90;;;;;;5115751;27;19918;-85
2021/01/14 05:57:07;;;;;;;;;;;1.20;99.90;;;;;;5105072;27;19911;-85
2021/01/14 05:59:38;;;;;;;;;;;1.20;99.90;;;;;;5134062;27;19994;-85
2021/01/14 06:02:09;;;;;;;;;;;1.20;99.90;;;;;;5118445;27;19932;-85
2021/01/14 06:04:37;;;;;;;;;;;1.20;99.90;;;;;;5118878;27;19998;-85
2021/01/14 06:07:06;;;;;;;;;;;1.20;99.90;;;;;;5118895;27;20002;-85
2021/01/14 06:09:45;;;;;;;;;;;1.10;99.90;;;;;;5118624;27;19907;-87
2021/01/14 06:12:12;;;;;;;;;;;1.20;99.90;;;;;;5137170;27;19908;-84
2021/01/14 06:14:54;;;;;;;;;;;1.10;99.90;;;;;;5113522;27;19907;-85
2021/01/14 06:17:31;;;;;;;;;;;1.10;99.90;;;;;;5118598;27;19915;-85
2021/01/14 06:20:07;;;;;;;;;;;1.10;99.90;;;;;;5138609;27;19918;-85
2021/01/14 06:22:48;;;;;;;;;;;1.10;99.90;;;;;;5118697;27;20267;-85
2021/01/14 06:25:17;;;;;;;;;;;1.20;99.90;;;;;;5118573;27;19915;-85
2021/01/14 06:28:03;;;;;;;;;;;1.20;99.90;;;;;;5135040;27;19974;-86
2021/01/14 06:30:34;;;;;;;;;;;1.10;99.90;;;;;;5114795;27;19915;-85
2021/01/14 06:33:09;;;;;;;;;;;1.20;99.90;;;;;;5118580;27;19907;-85
2021/01/14 06:35:35;;;;;;;;;;;1.10;99.90;;;;;;5117718;27;19960;-86
2021/01/14 06:38:03;;;;;;;;;;;1.10;99.90;;;;;;5140576;27;20335;-85
2021/01/14 06:40:32;;;;;;;;;;;1.20;99.90;;;;;;5156875;27;19914;-84
2021/01/14 06:43:06;;;;;;;;;;;1.10;99.90;;;;;;5124980;27;19971;-83
2021/01/14 06:45:44;;;;;;;;;;;1.10;99.90;;;;;;5115783;27;20344;-85
2021/01/14 06:48:27;;;;;;;;;;;1.10;99.90;;;;;;5117524;27;20351;-86
2021/01/14 06:51:04;;;;;;;;;;;1.10;99.90;;;;;;5131136;27;19933;-84
2021/01/14 06:53:38;;;;;;;;;;;1.10;99.90;;;;;;5131206;27;20378;-85
2021/01/14 06:56:10;;;;;;;;;;;1.10;99.90;;;;;;5134702;27;19921;-84
2021/01/14 06:58:40;;;;;;;;;;;1.10;99.90;;;;;;5134875;27;19921;-85
2021/01/14 07:01:11;;;;;;;;;;;1.10;99.90;;;;;;5131227;27;19907;-83
2021/01/14 07:03:58;;;;;;;;;;;1.10;99.90;;;;;;5126016;27;19930;-84
2021/01/14 07:06:29;;;;;;;;;;;1.10;99.90;;;;;;5114366;28;19907;-84
2021/01/14 07:09:14;;;;;;;;;;;1.10;99.90;;;;;;5107728;28;19998;-85
2021/01/14 07:11:47;;;;;;;;;;;1.10;99.90;;;;;;5115022;27;20436;-84
2021/01/14 07:14:29;;;;;;;;;;;1.00;99.90;;;;;;5119858;27;20450;-84
2021/01/14 07:17:14;;;;;;;;;;;1.00;99.90;;;;;;5136438;27;19919;-85
2021/01/14 07:19:50;;;;;;;;;;;1.00;99.90;;;;;;5113710;28;20318;-84
2021/01/14 07:22:19;;;;;;;;;;;1.00;99.90;;;;;;5114142;28;19914;-86
2021/01/14 07:24:51;;;;;;;;;;;1.00;99.90;;;;;;5113474;28;19915;-84
2021/01/14 07:27:17;;;;;;;;;;;1.00;99.90;;;;;;5114204;28;19981;-84
2021/01/14 07:30:03;;;;;;;;;;;1.00;99.90;;;;;;5115525;28;20356;-84
2021/01/14 07:32:50;;;;;;;;;;;1.00;99.90;;;;;;5113878;28;19908;-84
2021/01/14 07:35:41;;;;;;;;;;;1.00;99.90;;;;;;5114089;28;19907;-85
2021/01/14 07:38:08;;;;;;;;;;;1.00;99.90;;;;;;5114412;28;19915;-85
2021/01/14 07:40:44;;;;;;;;;;;1.00;99.90;;;;;;5113551;28;19914;-85
2021/01/14 07:43:19;;;;;;;;;;;1.00;99.90;;;;;;5116813;27;19928;-85
2021/01/14 07:45:45;;;;;;;;;;;1.10;99.90;;;;;;5135038;27;19907;-85
2021/01/14 07:48:33;;;;;;;;;;;1.10;99.90;;;;;;5135148;27;19929;-85
2021/01/14 07:51:05;;;;;;;;;;;1.00;99.90;;;;;;5134542;27;19907;-86
2021/01/14 07:53:37;;;;;;;;;;;1.10;99.90;;;;;;5129878;27;19908;-85
2021/01/14 07:56:26;;;;;;;;;;;1.10;99.90;;;;;;5129091;28;20037;-85
2021/01/14 07:58:56;;;;;;;;;;;1.10;99.90;;;;;;5113620;28;19964;-85
2021/01/14 08:01:31;;;;;;;;;;;1.00;99.90;;;;;;5113497;28;19955;-85
2021/01/14 08:04:03;;;;;;;;;;;1.10;99.90;;;;;;5113365;28;19908;-86
2021/01/14 08:06:30;;;;;;;;;;;1.10;99.90;;;;;;5112884;28;19958;-85
2021/01/14 08:08:56;;;;;;;;;;;1.10;99.90;;;;;;5113323;28;19916;-84
2021/01/14 08:11:25;;;;;;;;;;;1.10;99.90;;;;;;5112992;28;19911;-84
2021/01/14 08:14:09;;;;;;;;;;;1.10;99.90;;;;;;5109399;28;19908;-85
2021/01/14 08:16:44;;;;;;;;;;;1.20;99.90;;;;;;5114323;28;19916;-85
2021/01/14 08:19:29;;;;;;;;;;;1.20;99.90;;;;;;5116027;28;19911;-84
2021/01/14 08:22:25;;;;;;;;;;;1.20;99.90;;;;;;5114757;28;19915;-84
2021/01/14 08:24:57;;;;;;;;;;;1.30;99.90;;;;;;5115101;28;19908;-85
2021/01/14 08:27:34;;;;;;;;;;;1.30;99.90;;;;;;5109862;28;19908;-85
2021/01/14 08:30:26;;;;;;;;;;;1.30;99.90;;;;;;5113982;28;20012;-86
2021/01/14 08:33:01;;;;;;;;;;;1.40;99.90;;;;;;5113710;28;19914;-85
2021/01/14 08:35:37;;;;;;;;;;;1.40;99.90;;;;;;5113645;28;19908;-85
2021/01/14 08:38:19;;;;;;;;;;;1.50;99.90;;;;;;5113260;28;19957;-86
2021/01/14 08:40:46;;;;;;;;;;;1.50;99.90;;;;;;5112999;28;19965;-85
2021/01/14 08:43:35;;;;;;;;;;;1.60;99.90;;;;;;5109674;28;19923;-85
2021/01/14 08:46:06;;;;;;;;;;;1.60;99.90;;;;;;5111696;28;19908;-86
2021/01/14 08:48:36;;;;;;;;;;;1.70;99.90;;;;;;5112862;28;19915;-85
2021/01/14 08:51:03;;;;;;;;;;;1.80;99.90;;;;;;5116354;28;19951;-85
2021/01/14 08:53:40;;;;;;;;;;;1.80;99.90;;;;;;5117208;28;19961;-85
2021/01/14 08:56:07;;;;;;;;;;;1.90;99.90;;;;;;5117066;28;19931;-85
2021/01/14 08:58:41;;;;;;;;;;;2.00;99.90;;;;;;5120597;28;19930;-86
2021/01/14 09:01:29;;;;;;;;;;;2.00;99.90;;;;;;5114519;28;19908;-85
2021/01/14 09:04:01;;;;;;;;;;;2.10;99.90;;;;;;5117130;28;19914;-86
2021/01/14 09:06:43;;;;;;;;;;;2.10;99.90;;;;;;5116619;28;19908;-85
2021/01/14 09:09:15;;;;;;;;;;;2.20;99.90;;;;;;5134384;27;20427;-85
2021/01/14 09:11:47;;;;;;;;;;;2.30;99.90;;;;;;5138938;27;19907;-85
2021/01/14 09:14:20;;;;;;;;;;;2.60;99.90;;;;;;5136873;27;19907;-85
2021/01/14 09:16:48;;;;;;;;;;;2.80;99.90;;;;;;5135981;27;19911;-85
2021/01/14 09:19:20;;;;;;;;;;;2.90;99.90;;;;;;5136839;27;19911;-83
2021/01/14 09:21:51;;;;;;;;;;;3.10;99.90;;;;;;5135923;27;19907;-84
2021/01/14 09:24:28;;;;;;;;;;;3.20;99.90;;;;;;5128185;27;19910;-85
2021/01/14 09:26:56;;;;;;;;;;;3.30;99.90;;;;;;5125211;27;19934;-84
2021/01/14 09:29:34;;;;;;;;;;;3.40;99.90;;;;;;5125737;27;19969;-84
2021/01/14 09:32:15;;;;;;;;;;;3.50;99.90;;;;;;5136147;27;19907;-83
2021/01/14 09:34:43;;;;;;;;;;;3.60;99.90;;;;;;5134946;27;19911;-84
2021/01/14 09:37:19;;;;;;;;;;;3.70;99.90;;;;;;5110629;28;19916;-85
2021/01/14 09:39:50;;;;;;;;;;;3.70;99.90;;;;;;5121400;27;19918;-85
2021/01/14 09:42:17;;;;;;;;;;;3.70;99.90;;;;;;5142708;27;20397;-84
2021/01/14 09:45:03;;;;;;;;;;;3.70;99.90;;;;;;5139973;27;19914;-85
2021/01/14 09:47:28;;;;;;;;;;;3.70;99.90;;;;;;5158351;27;19908;-85
2021/01/14 09:50:07;;;;;;;;;;;;;;;;;;;;;
2021/01/14 09:52:42;;;;;;;;;;;3.70;99.90;;;;;;5156908;27;19907;-85
2021/01/14 09:55:13;;;;;;;;;;;3.70;99.90;;;;;;5139195;27;19907;-83
2021/01/14 09:57:47;;;;;;;;;;;3.70;99.90;;;;;;5139340;27;19915;-85
2021/01/14 10:00:19;;;;;;;;;;;3.70;99.90;;;;;;5139590;27;20329;-84
2021/01/14 10:03:03;;;;;;;;;;;3.70;99.90;;;;;;5139448;27;19907;-85
2021/01/14 10:05:30;;;;;;;;;;;3.80;99.90;;;;;;5139455;27;19951;-86
2021/01/14 10:08:04;;;;;;;;;;;3.80;99.00;;;;;;5136254;27;19915;-86
2021/01/14 10:10:33;;;;;;;;;;;3.90;98.80;;;;;;5135484;27;19907;-84
2021/01/14 10:13:05;;;;;;;;;;;3.90;98.60;;;;;;5139469;27;19911;-84
2021/01/14 10:15:33;;;;;;;;;;;4.00;98.60;;;;;;5139746;27;19907;-85
2021/01/14 10:18:02;;;;;;;;;;;4.10;98.80;;;;;;5138789;27;19990;-85
2021/01/14 10:20:40;;;;;;;;;;;4.40;99.90;;;;;;5140575;27;19915;-86
2021/01/14 10:23:14;;;;;;;;;;;5.10;99.20;;;;;;5130510;27;19992;-86
2021/01/14 10:25:54;;;;;;;;;;;5.70;95.80;;;;;;5140852;27;20058;-86
2021/01/14 10:28:29;;;;;;;;;;;5.90;92.70;;;;;;5122667;27;19914;-87
2021/01/14 10:31:00;;;;;;;;;;;5.90;92.00;;;;;;5120519;27;20351;-87
2021/01/14 10:33:30;;;;;;;;;;;5.90;91.00;;;;;;5118367;27;19908;-86
2021/01/14 10:35:58;;;;;;;;;;;5.80;91.10;;;;;;5130307;27;19911;-86
2021/01/14 10:38:29;;;;;;;;;;;5.70;91.00;;;;;;5126227;27;19947;-85
2021/01/14 10:41:07;;;;;;;;;;;5.60;91.30;;;;;;5115452;27;19914;-86
2021/01/14 10:43:34;;;;;;;;;;;5.40;91.40;;;;;;5122001;27;19927;-86
2021/01/14 10:46:06;;;;;;;;;;;5.10;91.20;;;;;;5138938;27;19911;-85
2021/01/14 10:48:39;;;;;;;;;;;4.90;91.70;;;;;;5108970;28;19912;-86
2021/01/14 10:51:07;;;;;;;;;;;4.80;92.50;;;;;;5082166;28;19909;-86
2021/01/14 10:53:42;;;;;;;;;;;4.70;92.30;;;;;;5094730;28;19908;-86
2021/01/14 10:56:15;;;;;;;;;;;4.60;92.50;;;;;;5093971;28;19908;-87
2021/01/14 10:59:02;;;;;;;;;;;4.40;92.60;;;;;;5091016;28;19916;-87
2021/01/14 11:01:28;;;;;;;;;;;4.20;93.30;;;;;;5093504;28;19912;-87
2021/01/14 11:04:07;;;;;;;;;;;4.00;93.50;;;;;;5092764;28;19915;-87
2021/01/14 11:06:43;;;;;;;;;;;3.90;93.90;;;;;;5093186;28;20011;-87
2021/01/14 11:09:26;;;;;;;;;;;3.80;94.50;;;;;;5093051;28;19908;-90
2021/01/14 11:12:07;;;;;;;;;;;3.90;94.90;;;;;;5092749;28;19951;-86
2021/01/14 11:14:39;;;;;;;;;;;4.10;95.30;;;;;;5091127;28;19919;-84
2021/01/14 11:17:15;;;;;;;;;;;4.30;95.00;;;;;;5092212;28;20605;-84
2021/01/14 11:19:41;;;;;;;;;;;4.60;94.90;;;;;;5107642;27;19907;-84
2021/01/14 11:22:09;;;;;;;;;;;5.20;94.40;;;;;;5116798;27;20326;-84
2021/01/14 11:24:44;;;;;;;;;;;5.50;93.10;;;;;;5094454;28;19915;-85
2021/01/14 11:27:15;;;;;;;;;;;5.70;91.80;;;;;;5076069;28;19908;-85
2021/01/14 11:29:48;;;;;;;;;;;5.80;91.60;;;;;;5072055;28;20472;-85
2021/01/14 11:32:20;;;;;;;;;;;5.90;90.60;;;;;;5092623;28;19908;-85
2021/01/14 11:34:48;;;;;;;;;;;5.90;90.50;;;;;;5075559;28;19913;-85
2021/01/14 11:37:14;;;;;;;;;;;5.80;90.30;;;;;;5070775;28;20014;-85
2021/01/14 11:39:40;;;;;;;;;;;5.70;89.60;;;;;;5075727;28;19951;-85
2021/01/14 11:42:14;;;;;;;;;;;5.50;89.70;;;;;;5076295;28;20339;-85
2021/01/14 11:44:48;;;;;;;;;;;5.40;90.00;;;;;;5075642;28;19943;-85
2021/01/14 11:47:19;;;;;;;;;;;5.50;90.50;;;;;;5076217;28;19912;-85
2021/01/14 11:50:09;;;;;;;;;;;5.80;88.90;;;;;;5071522;28;19908;-87
2021/01/14 11:52:38;;;;;;;;;;;5.90;88.10;;;;;;5075035;28;20409;-86
2021/01/14 11:55:13;;;;;;;;;;;5.90;87.80;;;;;;5104839;28;19918;-87
2021/01/14 11:57:41;;;;;;;;;;;5.80;86.50;;;;;;5116763;28;19951;-86
2021/01/14 12:00:13;;;;;;;;;;;5.70;86.90;;;;;;5116595;28;19913;-86
2021/01/14 12:03:01;;;;;;;;;;;5.50;86.40;;;;;;5116653;28;19907;-85
2021/01/14 12:05:30;;;;;;;;;;;5.40;87.30;;;;;;5055553;28;19938;-84
2021/01/14 12:08:06;;;;;;;;;;;5.50;87.80;;;;;;5089774;28;19962;-85
2021/01/14 12:10:34;;;;;;;;;;;5.50;87.10;;;;;;5089022;28;20441;-86
2021/01/14 12:13:19;;;;;;;;;;;5.70;87.00;;;;;;5085437;28;19923;-85
2021/01/14 12:15:50;;;;;;;;;;;5.90;85.50;;;;;;5071264;28;19908;-85
2021/01/14 12:18:21;;;;;;;;;;;6.00;85.60;;;;;;5076804;28;19932;-84
2021/01/14 12:20:50;;;;;;;;;;;6.10;85.20;;;;;;5074340;28;19913;-84
2021/01/14 12:23:21;;;;;;;;;;;6.60;84.30;;;;;;5069947;28;20098;-84
2021/01/14 12:25:46;;;;;;;;;;;7.50;81.40;;;;;;5072464;28;20008;-85
2021/01/14 12:28:15;;;;;;;;;;;8.00;77.20;;;;;;5072773;28;19948;-83
2021/01/14 12:30:49;;;;;;;;;;;8.20;75.10;;;;;;5023560;28;20291;-84
2021/01/14 12:33:18;;;;;;;;;;;8.50;75.60;;;;;;5015975;28;19913;-85
2021/01/14 12:35:47;;;;;;;;;;;8.70;72.80;;;;;;5024790;28;19920;-85
2021/01/14 12:38:20;;;;;;;;;;;8.40;71.90;;;;;;5057399;28;20027;-84
2021/01/14 12:40:51;;;;;;;;;;;8.00;72.50;;;;;;5055085;28;19991;-85
2021/01/14 12:43:25;;;;;;;;;;;7.50;73.40;;;;;;5053060;28;19921;-85
2021/01/14 12:45:54;;;;;;;;;;;6.90;74.30;;;;;;5058667;28;19917;-84
2021/01/14 12:48:25;;;;;;;;;;;6.30;76.10;;;;;;5052248;28;19956;-84
2021/01/14 12:50:57;;;;;;;;;;;5.70;77.30;;;;;;5058905;28;20093;-86
2021/01/14 12:53:25;;;;;;;;;;;5.20;78.60;;;;;;5059002;28;19909;-85
2021/01/14 12:55:53;;;;;;;;;;;4.80;80.20;;;;;;5076226;28;19909;-86
2021/01/14 12:58:21;;;;;;;;;;;4.50;81.30;;;;;;5075842;28;19916;-88
2021/01/14 13:00:50;;;;;;;;;;;4.20;82.20;;;;;;5059453;28;19985;-87
2021/01/14 13:03:21;;;;;;;;;;;4.00;83.20;;;;;;5117840;28;19908;-86
2021/01/14 13:05:49;;;;;;;;;;;3.80;84.10;;;;;;5118469;28;19912;-87
2021/01/14 13:08:15;;;;;;;;;;;3.60;85.10;;;;;;5112250;28;19939;-87
2021/01/14 13:10:50;;;;;;;;;;;3.70;85.90;;;;;;5111102;28;19915;-87
2021/01/14 13:13:22;;;;;;;;;;;3.60;85.00;;;;;;5114208;28;20320;-86
2021/01/14 13:15:50;;;;;;;;;;;3.70;85.30;;;;;;5117627;28;20398;-87
2021/01/14 13:18:30;;;;;;;;;;;3.80;85.30;;;;;;5110518;28;19916;-87
2021/01/14 13:21:04;;;;;;;;;;;3.80;85.40;;;;;;5116829;28;19911;-86
2021/01/14 13:23:38;;;;;;;;;;;3.80;85.50;;;;;;5116536;28;19907;-86
2021/01/14 13:26:15;;;;;;;;;;;3.80;85.70;;;;;;5114761;28;19929;-85
2021/01/14 13:28:51;;;;;;;;;;;3.70;86.20;;;;;;5126385;28;19962;-87
2021/01/14 13:31:22;;;;;;;;;;;3.70;86.70;;;;;;5110813;28;19915;-87
2021/01/14 13:33:59;;;;;;;;;;;3.60;87.00;;;;;;5117142;28;19912;-87
2021/01/14 13:36:28;;;;;;;;;;;3.50;87.50;;;;;;5112495;28;19915;-87
2021/01/14 13:38:53;;;;;;;;;;;3.50;87.90;;;;;;5037909;28;19908;-86
2021/01/14 13:41:22;;;;;;;;;;;3.50;88.30;;;;;;5052049;28;19920;-87
2021/01/14 13:43:51;;;;;;;;;;;3.60;88.90;;;;;;5050052;28;20398;-87
2021/01/14 13:46:26;;;;;;;;;;;3.60;88.90;;;;;;5052882;28;19913;-87
2021/01/14 13:48:59;;;;;;;;;;;3.50;88.90;;;;;;5052479;28;19913;-86
2021/01/14 13:51:47;;;;;;;;;;;3.40;88.80;;;;;;5055206;28;19909;-86
2021/01/14 13:54:20;;;;;;;;;;;3.40;89.20;;;;;;5053153;28;19959;-86
2021/01/14 13:56:50;;;;;;;;;;;3.30;89.60;;;;;;5055021;28;19967;-87
2021/01/14 13:59:24;;;;;;;;;;;3.20;90.00;;;;;;5052234;28;19917;-86
2021/01/14 14:01:52;;;;;;;;;;;3.20;90.30;;;;;;5055435;28;19908;-85
2021/01/14 14:04:23;;;;;;;;;;;3.20;90.50;;;;;;5055967;28;19912;-87
2021/01/14 14:06:51;;;;;;;;;;;3.20;90.70;;;;;;5050674;28;20007;-87
2021/01/14 14:09:25;;;;;;;;;;;3.20;90.90;;;;;;5055224;28;20043;-87
2021/01/14 14:11:59;;;;;;;;;;;3.20;91.20;;;;;;5066565;28;19908;-86
2021/01/14 14:14:28;;;;;;;;;;;3.20;91.40;;;;;;5077770;28;19912;-86
2021/01/14 14:17:02;;;;;;;;;;;3.20;91.70;;;;;;5092785;28;19912;-86
2021/01/14 14:19:35;;;;;;;;;;;3.20;91.90;;;;;;5093911;28;19913;-87
2021/01/14 14:22:01;;;;;;;;;;;3.20;92.10;;;;;;5074820;28;19915;-87
2021/01/14 14:24:29;;;;;;;;;;;3.20;92.50;;;;;;5076905;28;19908;-86
2021/01/14 14:26:54;;;;;;;;;;;3.20;92.90;;;;;;5075334;28;19912;-86
2021/01/14 14:29:20;;;;;;;;;;;3.20;93.20;;;;;;5075307;28;19939;-87
2021/01/14 14:32:04;;;;;;;;;;;3.20;93.40;;;;;;5075592;28;19915;-87
2021/01/14 14:34:32;;;;;;;;;;;3.20;93.40;;;;;;5084462;27;19952;-87
2021/01/14 14:37:09;;;;;;;;;;;3.10;93.30;;;;;;5119075;27;19916;-86
2021/01/14 14:39:39;;;;;;;;;;;3.10;93.60;;;;;;5112782;27;20020;-85
2021/01/14 14:42:08;;;;;;;;;;;3.10;93.60;;;;;;5114394;27;20398;-87
2021/01/14 14:44:34;;;;;;;;;;;3.10;93.50;;;;;;5053028;28;19920;-87
2021/01/14 14:47:06;;;;;;;;;;;3.00;93.60;;;;;;5053062;28;20035;-87
2021/01/14 14:49:38;;;;;;;;;;;3.00;93.80;;;;;;5052696;28;19917;-88
2021/01/14 14:52:06;;;;;;;;;;;3.00;94.10;;;;;;5049377;28;19909;-87
2021/01/14 14:54:34;;;;;;;;;;;3.00;94.10;;;;;;5049311;28;19913;-87
2021/01/14 14:57:05;;;;;;;;;;;3.00;94.30;;;;;;5053310;28;19962;-88
2021/01/14 14:59:38;;;;;;;;;;;3.00;94.30;;;;;;5051476;28;19928;-85
2021/01/14 15:02:06;;;;;;;;;;;2.90;94.50;;;;;;5052803;28;19909;-87
2021/01/14 15:04:31;;;;;;;;;;;2.90;94.30;;;;;;5052812;28;19913;-87
2021/01/14 15:07:07;;;;;;;;;;;2.90;94.50;;;;;;5049151;28;19916;-87
2021/01/14 15:09:36;;;;;;;;;;;2.80;94.60;;;;;;5048810;28;19915;-87